Time;durP1;ratioP1;P1;durP2;ratioP2;P2;SDS_P1;SDS_P2;PMS_P1;PMS_P2;Temp;Humidity;BMP_temperature;BMP_pressure;BME280_temperature;BME280_humidity;BME280_pressure;Samples;Min_cycle;Max_cycle;Signal;HPM_P1;HPM_P2
2022/10/12 00:00:29;;;;;;;6.22;2.85;;;;;;;18.81;42.33;102438.66;5061445;28;20032;-63
2022/10/12 00:02:54;;;;;;;5.35;2.50;;;;;;;18.77;42.81;102434.50;5061050;28;20024;-63
2022/10/12 00:05:19;;;;;;;5.87;2.60;;;;;;;18.82;42.66;102447.44;5061207;28;20028;-63
2022/10/12 00:07:44;;;;;;;5.70;2.70;;;;;;;18.81;42.49;102449.22;5060702;28;20269;-63
2022/10/12 00:10:10;;;;;;;6.57;3.03;;;;;;;18.76;42.44;102438.09;5061408;28;20748;-61
2022/10/12 00:12:35;;;;;;;6.33;3.03;;;;;;;18.73;42.51;102437.41;5060766;28;20052;-64
2022/10/12 00:15:00;;;;;;;6.47;2.97;;;;;;;18.78;42.71;102452.03;5061096;28;20265;-64
2022/10/12 00:17:25;;;;;;;5.83;2.80;;;;;;;18.74;42.60;102432.06;5060974;28;20037;-64
2022/10/12 00:19:51;;;;;;;6.73;3.10;;;;;;;18.68;42.66;102435.03;5061362;28;20253;-61
2022/10/12 00:22:16;;;;;;;6.72;2.80;;;;;;;18.72;42.58;102430.44;5060835;28;20690;-65
2022/10/12 00:24:41;;;;;;;6.80;3.47;;;;;;;18.70;42.24;102432.31;5060934;28;20032;-62
2022/10/12 00:27:06;;;;;;;6.60;3.10;;;;;;;18.71;42.63;102440.16;5060804;28;20051;-64
2022/10/12 00:29:32;;;;;;;5.90;3.10;;;;;;;18.75;42.31;102449.56;5061119;28;20287;-64
2022/10/12 00:31:57;;;;;;;5.03;2.73;;;;;;;18.71;42.48;102437.50;5060620;28;20348;-64
2022/10/12 00:34:22;;;;;;;5.83;2.90;;;;;;;18.64;42.42;102425.59;5060886;28;20257;-64
2022/10/12 00:36:47;;;;;;;6.68;3.45;;;;;;;18.67;42.50;102430.69;5060513;28;20265;-61
2022/10/12 00:39:13;;;;;;;6.50;3.53;;;;;;;18.64;42.32;102436.16;5061245;28;20048;-64
2022/10/12 00:41:42;;;;;;;6.15;3.28;;;;;;;18.70;42.34;102445.53;5060795;28;20035;-64
2022/10/12 00:44:35;;;;;;;6.00;3.50;;;;;;;18.68;42.46;102440.34;5060796;28;20203;-64
2022/10/12 00:47:17;;;;;;;7.20;3.20;;;;;;;18.62;42.38;102436.25;5060865;28;20146;-65
2022/10/12 00:49:46;;;;;;;5.90;3.20;;;;;;;18.60;42.27;102427.56;5061003;28;20039;-64
2022/10/12 00:52:14;;;;;;;6.70;3.38;;;;;;;18.67;42.17;102444.78;5061005;28;20070;-62
2022/10/12 00:54:45;;;;;;;8.43;3.97;;;;;;;18.60;42.40;102435.50;5060649;28;20117;-62
2022/10/12 00:57:13;;;;;;;5.90;3.22;;;;;;;18.61;42.20;102450.41;5061223;28;20047;-64
2022/10/12 00:59:56;;;;;;;7.00;3.60;;;;;;;18.63;42.18;102452.97;5061648;28;20461;-64
2022/10/12 01:02:24;;;;;;;7.85;3.40;;;;;;;18.58;42.31;102440.03;5064619;28;20794;-64
2022/10/12 01:04:50;;;;;;;6.43;3.17;;;;;;;18.56;42.12;102438.41;5064651;28;20029;-63
2022/10/12 01:07:15;;;;;;;6.90;3.40;;;;;;;18.54;42.38;102437.63;5064297;28;20423;-66
2022/10/12 01:09:41;;;;;;;6.35;3.40;;;;;;;18.47;42.17;102421.31;5065814;28;20024;-64
2022/10/12 01:12:07;;;;;;;7.63;3.45;;;;;;;18.60;42.22;102437.28;5066260;28;20047;-63
2022/10/12 01:14:33;;;;;;;6.43;3.80;;;;;;;18.57;42.38;102430.38;5064293;28;20033;-64
2022/10/12 01:17:12;;;;;;;5.97;3.00;;;;;;;18.55;42.21;102427.00;5064419;28;20089;-63
2022/10/12 01:20:05;;;;;;;7.95;3.40;;;;;;;18.57;42.33;102430.38;5064300;28;20035;-63
2022/10/12 01:22:38;;;;;;;6.25;3.00;;;;;;;18.56;42.12;102419.91;5064082;28;20071;-64
2022/10/12 01:25:35;;;;;;;7.40;3.60;;;;;;;18.56;42.45;102419.91;5063736;28;20035;-62
2022/10/12 01:28:38;;;;;;;6.00;3.38;;;;;;;18.52;42.39;102413.09;5063764;28;20074;-65
2022/10/12 01:31:14;;;;;;;6.25;3.45;;;;;;;18.54;42.39;102411.25;5057324;28;20052;-63
2022/10/12 01:33:57;;;;;;;6.63;3.35;;;;;;;18.53;42.30;102412.16;5063717;28;20371;-63
2022/10/12 01:36:44;;;;;;;6.55;3.47;;;;;;;18.42;42.30;102395.19;5064224;28;20043;-64
2022/10/12 01:39:12;;;;;;;7.38;3.33;;;;;;;18.53;42.30;102409.53;5063752;28;20036;-63
2022/10/12 01:41:45;;;;;;;7.13;3.53;;;;;;;18.52;42.21;102407.81;5063520;28;20442;-63
2022/10/12 01:44:10;;;;;;;6.80;3.35;;;;;;;18.45;42.20;102399.41;5063441;28;20483;-64
2022/10/12 01:46:41;;;;;;;6.10;3.20;;;;;;;18.49;42.52;102401.78;5063769;28;20028;-62
2022/10/12 01:49:07;;;;;;;6.35;3.17;;;;;;;18.40;42.56;102385.63;5063623;28;20442;-62
2022/10/12 01:51:51;;;;;;;8.48;3.85;;;;;;;18.41;42.25;102387.34;5063694;28;20036;-64
2022/10/12 01:54:20;;;;;;;;;;;;;;;18.46;42.46;102395.84;5063609;28;20107;-66
2022/10/12 01:56:57;;;;;;;6.03;2.88;;;;;;;18.41;42.32;102385.53;5063319;28;19965;-64
2022/10/12 01:59:41;;;;;;;7.93;3.60;;;;;;;18.48;42.08;102397.47;5063635;28;20041;-64
2022/10/12 02:02:19;;;;;;;6.65;3.42;;;;;;;18.48;42.23;102393.94;5063476;28;20555;-63
2022/10/12 02:04:48;;;;;;;6.75;3.47;;;;;;;18.43;42.04;102383.66;5062887;28;20359;-62
2022/10/12 02:07:21;;;;;;;7.68;3.50;;;;;;;18.48;42.15;102391.31;5063032;28;20055;-65
2022/10/12 02:09:46;;;;;;;6.75;3.38;;;;;;;18.47;42.08;102390.47;5063443;28;20078;-64
2022/10/12 02:12:17;;;;;;;6.63;3.30;;;;;;;18.49;42.22;102391.22;5063059;28;20106;-63
2022/10/12 02:14:47;;;;;;;6.90;3.30;;;;;;;18.48;42.04;102379.00;5062947;28;21145;-63
2022/10/12 02:17:16;;;;;;;6.38;3.50;;;;;;;18.46;42.20;102375.56;5062938;28;20595;-63
2022/10/12 02:19:49;;;;;;;6.43;3.58;;;;;;;18.49;41.94;102379.81;5063193;28;20447;-63
2022/10/12 02:22:16;;;;;;;7.07;3.87;;;;;;;18.43;42.10;102367.81;5062977;28;20036;-63
2022/10/12 02:24:44;;;;;;;7.47;3.38;;;;;;;18.46;42.01;102370.28;5062867;28;20277;-63
2022/10/12 02:27:12;;;;;;;6.72;3.35;;;;;;;18.47;41.93;102373.78;5063130;28;20056;-63
2022/10/12 02:29:40;;;;;;;5.95;3.47;;;;;;;18.45;42.15;102365.09;5063034;28;20479;-62
2022/10/12 02:32:20;;;;;;;6.65;3.30;;;;;;;18.48;41.98;102373.72;5062711;28;20481;-64
2022/10/12 02:34:48;;;;;;;6.60;3.38;;;;;;;18.48;42.00;102380.75;5062958;28;20044;-64
2022/10/12 02:37:25;;;;;;;6.80;3.45;;;;;;;18.44;41.80;102369.53;5062572;28;20127;-64
2022/10/12 02:39:57;;;;;;;6.70;3.55;;;;;;;18.44;41.93;102372.16;5062854;28;20039;-63
2022/10/12 02:42:31;;;;;;;6.38;3.50;;;;;;;18.40;42.03;102368.00;5062509;28;20484;-65
2022/10/12 02:44:58;;;;;;;6.93;3.53;;;;;;;18.39;42.11;102368.97;5062656;28;20036;-62
2022/10/12 02:47:27;;;;;;;7.55;3.92;;;;;;;18.39;41.90;102363.69;5062396;28;20071;-64
2022/10/12 02:49:54;;;;;;;5.90;3.30;;;;;;;18.44;42.07;102371.34;5062371;28;20535;-63
2022/10/12 02:52:19;;;;;;;5.80;3.25;;;;;;;18.44;41.63;102372.16;5062681;28;20032;-61
2022/10/12 02:54:45;;;;;;;6.43;3.50;;;;;;;18.38;42.07;102353.22;5062232;28;20105;-63
2022/10/12 02:57:10;;;;;;;5.13;2.70;;;;;;;18.39;41.89;102358.41;5062457;28;20439;-65
2022/10/12 02:59:35;;;;;;;6.75;3.67;;;;;;;18.44;41.60;102358.97;5062678;28;20649;-63
2022/10/12 03:02:00;;;;;;;7.20;3.50;;;;;;;18.41;41.68;102353.03;5062377;28;20032;-63
2022/10/12 03:04:26;;;;;;;6.33;3.03;;;;;;;18.40;41.52;102351.31;5062205;28;20046;-62
2022/10/12 03:06:51;;;;;;;5.70;3.22;;;;;;;18.43;41.76;102351.97;5062345;28;20775;-65
2022/10/12 03:09:16;;;;;;;9.37;3.87;;;;;;;18.35;41.44;102341.03;5062241;28;20024;-65
2022/10/12 03:11:43;;;;;;;6.35;3.17;;;;;;;18.42;41.51;102349.44;5061789;28;20348;-64
2022/10/12 03:14:10;;;;;;;5.40;2.90;;;;;;;18.36;41.71;102342.75;5062085;28;20034;-63
2022/10/12 03:16:35;;;;;;;7.88;3.28;;;;;;;18.34;41.63;102346.41;5061914;28;20024;-65
2022/10/12 03:19:01;;;;;;;6.10;3.00;;;;;;;18.40;41.79;102346.88;5062288;28;20044;-66
2022/10/12 03:21:26;;;;;;;7.43;3.47;;;;;;;18.33;41.68;102339.44;5061898;28;20266;-67
2022/10/12 03:23:51;;;;;;;6.00;3.23;;;;;;;18.31;41.33;102339.53;5061346;28;20266;-64
2022/10/12 03:41:30;;;;;;;5.72;3.08;;;;;;;18.31;41.35;102344.81;5061663;28;20540;-62
2022/10/12 03:43:56;;;;;;;7.77;3.57;;;;;;;18.26;41.48;102339.78;5061560;28;20135;-62
2022/10/12 03:46:21;;;;;;;6.33;3.33;;;;;;;18.29;41.43;102336.97;5061872;28;20932;-64
2022/10/12 03:48:46;;;;;;;6.53;3.33;;;;;;;18.23;41.64;102336.47;5061322;28;20270;-65
2022/10/12 03:51:11;;;;;;;5.88;3.20;;;;;;;18.23;41.55;102328.53;5061354;28;20265;-65
2022/10/12 03:53:37;;;;;;;5.72;3.28;;;;;;;18.22;41.33;102327.69;5061358;28;20464;-63
2022/10/12 03:56:02;;;;;;;7.17;3.20;;;;;;;18.21;41.34;102326.00;5061365;28;20266;-65
2022/10/12 03:58:27;;;;;;;7.80;3.55;;;;;;;18.29;41.26;102338.75;5061402;28;20269;-64
2022/10/12 04:00:53;;;;;;;6.25;3.30;;;;;;;18.26;41.27;102337.16;5061586;28;20112;-64
2022/10/12 04:03:20;;;;;;;5.70;3.22;;;;;;;18.21;41.06;102323.34;5060940;28;20025;-64
2022/10/12 04:05:52;;;;;;;7.65;3.47;;;;;;;18.22;41.21;102317.16;5061118;28;20451;-64
2022/10/12 04:08:18;;;;;;;6.88;3.50;;;;;;;18.19;41.21;102319.13;5060702;28;20531;-62
2022/10/12 04:10:44;;;;;;;6.97;3.55;;;;;;;18.25;41.52;102324.06;5061158;28;20071;-65
2022/10/12 04:13:09;;;;;;;7.55;3.30;;;;;;;18.25;41.38;102327.53;5061127;28;20060;-63
2022/10/12 04:15:34;;;;;;;6.07;3.33;;;;;;;18.17;41.02;102313.94;5061265;28;20051;-63
2022/10/12 04:18:00;;;;;;;5.93;3.07;;;;;;;18.17;41.37;102318.38;5061189;28;20394;-66
2022/10/12 04:20:25;;;;;;;7.17;3.20;;;;;;;18.17;41.36;102318.38;5060836;28;20302;-63
2022/10/12 04:22:50;;;;;;;4.90;2.92;;;;;;;18.19;41.27;102330.53;5060971;28;20272;-65
2022/10/12 04:25:16;;;;;;;5.97;2.90;;;;;;;18.21;41.08;102328.63;5059622;28;20052;-64
2022/10/12 04:27:41;;;;;;;5.20;3.08;;;;;;;18.17;41.04;102328.94;5060914;28;20273;-66
2022/10/12 04:30:07;;;;;;;7.38;3.25;;;;;;;18.20;41.26;102331.34;5061064;28;20032;-62
2022/10/12 04:32:32;;;;;;;6.32;3.05;;;;;;;18.17;40.96;102329.78;5060940;28;20071;-64
2022/10/12 04:34:57;;;;;;;5.67;3.10;;;;;;;18.13;40.96;102320.31;5063559;28;20033;-63
2022/10/12 04:37:25;;;;;;;5.07;3.00;;;;;;;18.16;41.21;102317.50;5064967;28;20253;-64
2022/10/12 04:39:50;;;;;;;6.40;2.72;;;;;;;18.21;40.85;102331.28;5064411;28;20051;-65
2022/10/12 04:42:16;;;;;;;6.30;2.80;;;;;;;18.13;40.82;102317.69;5064904;28;20099;-64
2022/10/12 04:44:41;;;;;;;6.18;2.95;;;;;;;18.15;41.15;102323.75;5064757;28;20265;-65
2022/10/12 04:47:06;;;;;;;5.70;2.97;;;;;;;18.20;41.52;102334.88;5064539;28;20506;-64
2022/10/12 04:49:31;;;;;;;5.83;2.97;;;;;;;18.13;41.11;102325.59;5064773;28;20265;-64
2022/10/12 04:51:57;;;;;;;5.30;3.10;;;;;;;18.19;41.02;102337.59;5064695;28;20269;-65
2022/10/12 04:54:22;;;;;;;6.13;3.20;;;;;;;18.11;41.01;102328.31;5064402;28;20272;-63
2022/10/12 04:56:47;;;;;;;5.68;2.85;;;;;;;18.11;41.21;102330.97;5064998;28;21211;-65
2022/10/12 04:59:12;;;;;;;5.50;2.90;;;;;;;18.12;41.18;102334.47;5064746;28;20036;-63
2022/10/12 05:01:38;;;;;;;7.17;3.03;;;;;;;18.18;40.92;102343.81;5064457;28;20269;-62
2022/10/12 05:04:03;;;;;;;6.27;3.10;;;;;;;18.15;40.82;102336.94;5064177;28;20261;-63
2022/10/12 05:06:28;;;;;;;5.68;2.97;;;;;;;18.13;40.95;102339.66;5064339;28;21440;-62
2022/10/12 05:08:54;;;;;;;6.90;3.10;;;;;;;18.08;40.98;102323.22;5064154;28;20040;-65
2022/10/12 05:11:19;;;;;;;5.38;2.95;;;;;;;18.12;40.83;102337.09;5064130;28;20032;-63
2022/10/12 05:13:44;;;;;;;6.10;3.05;;;;;;;18.08;41.13;102322.38;5064113;28;20064;-63
2022/10/12 05:16:09;;;;;;;7.40;2.95;;;;;;;18.08;40.86;102317.09;5064693;28;20064;-64
2022/10/12 05:18:35;;;;;;;5.72;3.15;;;;;;;18.12;40.97;102321.28;5064139;28;20047;-64
2022/10/12 05:21:00;;;;;;;6.75;3.25;;;;;;;18.12;40.97;102308.09;5064102;28;20154;-64
2022/10/12 05:23:25;;;;;;;8.20;3.37;;;;;;;18.12;40.96;102300.16;5063704;28;20037;-62
2022/10/12 05:25:53;;;;;;;6.20;3.83;;;;;;;18.25;40.76;102310.84;5064185;28;20418;-63
2022/10/12 05:28:18;;;;;;;5.13;2.78;;;;;;;18.24;40.92;102307.34;5064284;28;20265;-63
2022/10/12 05:30:44;;;;;;;5.80;2.80;;;;;;;18.24;41.25;102294.16;5063604;28;20105;-63
2022/10/12 05:33:09;;;;;;;5.70;2.70;;;;;;;18.31;41.29;102299.94;5063945;28;20257;-65
2022/10/12 05:35:34;;;;;;;6.10;2.95;;;;;;;18.43;40.93;102311.56;5063422;28;20267;-63
2022/10/12 05:37:59;;;;;;;4.93;2.60;;;;;;;18.38;41.35;102290.69;5063971;28;20423;-65
2022/10/12 05:40:24;;;;;;;5.67;3.03;;;;;;;18.44;40.99;102310.63;5063441;28;20289;-64
2022/10/12 05:42:50;;;;;;;5.25;2.80;;;;;;;18.50;41.57;102304.97;5064107;28;20257;-63
2022/10/12 05:45:15;;;;;;;5.43;2.70;;;;;;;18.56;41.12;102309.84;5062790;28;20047;-65
2022/10/12 05:47:41;;;;;;;6.88;2.88;;;;;;;18.55;41.10;102297.63;5063654;28;20285;-64
2022/10/12 05:50:06;;;;;;;6.05;2.75;;;;;;;18.60;41.44;102306.09;5063342;28;20237;-65
2022/10/12 05:52:32;;;;;;;5.68;2.53;;;;;;;18.64;41.35;102298.84;5063550;28;20033;-64
2022/10/12 05:54:57;;;;;;;5.90;3.03;;;;;;;18.64;41.41;102294.44;5063128;28;20029;-64
2022/10/12 05:57:22;;;;;;;5.70;2.80;;;;;;;18.71;41.31;102305.47;5063483;28;20040;-64
2022/10/12 05:59:47;;;;;;;5.90;2.80;;;;;;;18.74;41.18;102304.41;5063196;28;20605;-62
2022/10/12 06:02:15;;;;;;;5.17;2.70;;;;;;;18.79;40.93;102313.75;5063522;28;20028;-63
2022/10/12 06:04:40;;;;;;;6.40;2.80;;;;;;;18.81;41.22;102316.31;5063212;28;20612;-65
2022/10/12 06:07:06;;;;;;;7.47;2.97;;;;;;;18.75;41.13;102300.84;5063056;28;20235;-63
2022/10/12 06:09:31;;;;;;;5.70;2.65;;;;;;;18.85;40.95;102317.88;5063204;28;20032;-64
2022/10/12 06:11:56;;;;;;;6.20;2.88;;;;;;;18.85;41.09;102315.22;5063518;28;20056;-64
2022/10/12 06:14:21;;;;;;;5.15;2.65;;;;;;;18.81;41.01;102308.41;5062894;28;20039;-66
2022/10/12 06:16:47;;;;;;;5.82;2.63;;;;;;;18.89;40.91;102311.44;5063100;28;20384;-62
2022/10/12 06:19:12;;;;;;;4.72;2.58;;;;;;;18.83;40.73;102301.22;5063172;28;20028;-65
2022/10/12 06:21:37;;;;;;;5.23;2.83;;;;;;;18.90;40.62;102310.50;5063114;28;20075;-64
2022/10/12 06:24:03;;;;;;;6.30;2.83;;;;;;;18.84;40.46;102303.78;5061505;28;20585;-65
2022/10/12 06:26:28;;;;;;;4.95;2.65;;;;;;;18.84;40.65;102305.59;5062594;28;20041;-63
2022/10/12 06:28:53;;;;;;;5.95;2.67;;;;;;;18.88;40.51;102309.72;5062891;28;20028;-66
2022/10/12 06:31:19;;;;;;;5.05;2.38;;;;;;;18.92;40.57;102316.53;5062654;28;20115;-63
2022/10/12 06:33:44;;;;;;;5.43;2.83;;;;;;;18.85;40.64;102304.66;5062754;28;20056;-64
2022/10/12 06:36:10;;;;;;;4.97;2.78;;;;;;;18.93;40.60;102309.44;5062551;28;20025;-64
2022/10/12 06:38:35;;;;;;;6.07;3.10;;;;;;;18.93;40.46;102310.31;5062776;28;20124;-63
2022/10/12 06:41:00;;;;;;;6.28;2.78;;;;;;;18.85;40.74;102292.28;5062600;28;20304;-63
2022/10/12 06:43:25;;;;;;;6.53;3.10;;;;;;;18.94;40.68;102308.53;5062606;28;20350;-62
2022/10/12 06:45:51;;;;;;;6.45;3.17;;;;;;;18.87;40.48;102300.13;5062434;28;20028;-63
2022/10/12 06:48:16;;;;;;;6.25;2.80;;;;;;;18.82;40.50;102286.31;5062729;28;20387;-63
2022/10/12 06:50:41;;;;;;;5.93;2.60;;;;;;;18.83;40.40;102290.66;5062253;28;20142;-63
2022/10/12 06:53:06;;;;;;;7.97;3.33;;;;;;;18.79;39.99;102291.81;5062561;28;20349;-64
2022/10/12 06:55:32;;;;;;;5.77;2.87;;;;;;;18.79;40.76;102295.28;5061843;28;20035;-64
2022/10/12 06:57:57;;;;;;;6.68;3.30;;;;;;;18.80;40.68;102302.28;5061338;28;20291;-63
2022/10/12 07:00:23;;;;;;;7.32;3.35;;;;;;;18.87;40.91;102309.81;5062149;28;20033;-64
2022/10/12 07:02:50;;;;;;;5.40;3.10;;;;;;;18.88;41.29;102314.19;5062615;28;20491;-64
2022/10/12 07:05:15;;;;;;;9.93;3.38;;;;;;;18.87;41.27;102313.34;5061887;28;20025;-64
2022/10/12 07:07:41;;;;;;;7.97;3.22;;;;;;;18.83;41.53;102306.50;5061967;28;20070;-62
2022/10/12 07:10:07;;;;;;;7.20;3.28;;;;;;;18.87;41.40;102315.97;5062016;28;20035;-63
2022/10/12 07:12:37;;;;;;;6.45;3.30;;;;;;;18.87;41.92;102315.97;5061760;28;20451;-63
2022/10/12 07:15:04;;;;;;;7.18;3.25;;;;;;;18.88;41.57;102311.53;5061671;28;20032;-64
2022/10/12 07:17:30;;;;;;;6.53;3.30;;;;;;;18.82;41.69;102303.00;5062120;28;20574;-63
2022/10/12 07:19:55;;;;;;;8.25;3.03;;;;;;;18.90;41.71;102307.00;5061945;28;20028;-62
2022/10/12 07:22:20;;;;;;;5.03;2.80;;;;;;;18.81;41.94;102281.97;5062000;28;20852;-62
2022/10/12 07:24:45;;;;;;;6.70;3.10;;;;;;;18.94;41.66;102305.88;5061767;28;20033;-64
2022/10/12 07:27:11;;;;;;;6.22;3.13;;;;;;;18.87;41.72;102283.41;5061652;28;20744;-64
2022/10/12 07:29:37;;;;;;;6.13;3.00;;;;;;;18.97;41.95;102300.41;5060522;28;20024;-63
2022/10/12 07:32:03;;;;;;;7.85;3.38;;;;;;;18.98;41.93;102299.47;5061675;28;20367;-65
2022/10/12 07:34:29;;;;;;;5.88;3.60;;;;;;;19.01;41.99;102300.13;5061463;28;20052;-65
2022/10/12 07:36:55;;;;;;;7.03;3.17;;;;;;;18.98;42.02;102295.03;5061633;28;20086;-63
2022/10/12 07:39:21;;;;;;;6.38;3.15;;;;;;;19.05;42.28;102306.06;5061481;28;20151;-65
2022/10/12 07:41:47;;;;;;;6.15;3.17;;;;;;;19.01;42.08;102296.63;5061479;28;20095;-64
2022/10/12 07:44:12;;;;;;;5.70;3.42;;;;;;;19.01;42.34;102297.47;5061553;28;20025;-64
2022/10/12 07:46:38;;;;;;;5.85;3.10;;;;;;;19.06;42.45;102299.84;5061502;28;20032;-64
2022/10/12 07:49:04;;;;;;;7.82;3.50;;;;;;;19.09;42.54;102307.56;5060361;28;20041;-65
2022/10/12 07:51:29;;;;;;;6.78;3.22;;;;;;;19.11;42.49;102313.59;5061521;28;20036;-64
2022/10/12 07:53:55;;;;;;;6.80;3.10;;;;;;;19.06;42.41;102297.19;5061156;28;20036;-63
2022/10/12 07:56:20;;;;;;;7.32;3.40;;;;;;;19.07;42.27;102300.69;5061285;28;20148;-62
2022/10/12 07:58:51;;;;;;;5.70;3.13;;;;;;;19.09;42.42;102306.69;5061436;28;20147;-63
2022/10/12 08:01:17;;;;;;;5.78;3.30;;;;;;;19.12;42.54;102309.16;5061266;28;20211;-64
2022/10/12 08:03:43;;;;;;;7.63;3.42;;;;;;;19.11;42.45;102308.31;5061102;28;20032;-64
2022/10/12 08:06:13;;;;;;;8.07;3.37;;;;;;;19.12;42.50;102314.44;5061006;28;20037;-61
2022/10/12 08:08:38;;;;;;;7.68;4.13;;;;;;;19.08;42.63;102311.16;5060968;28;20253;-64
2022/10/12 08:11:04;;;;;;;9.15;3.75;;;;;;;19.16;42.64;102326.53;5060962;28;20435;-64
2022/10/12 08:13:30;;;;;;;8.07;3.72;;;;;;;19.10;42.77;102305.78;5059752;28;20062;-66
2022/10/12 08:15:56;;;;;;;6.47;3.40;;;;;;;19.15;42.71;102325.69;5061021;28;20064;-69
2022/10/12 08:18:21;;;;;;;6.93;3.88;;;;;;;19.14;42.63;102304.66;5061186;28;20394;-65
2022/10/12 08:20:46;;;;;;;7.63;3.88;;;;;;;19.20;42.82;102310.41;5060494;28;20089;-68
2022/10/12 08:23:12;;;;;;;7.22;3.75;;;;;;;19.25;42.66;102318.03;5060407;28;20483;-69
2022/10/12 08:25:37;;;;;;;6.57;3.60;;;;;;;19.30;42.70;102309.81;5059245;28;20044;-65
2022/10/12 08:28:04;;;;;;;7.43;3.30;;;;;;;19.32;42.93;102305.28;5060983;28;20315;-68
2022/10/12 08:30:30;;;;;;;7.57;3.78;;;;;;;19.34;42.68;102301.59;5060364;28;20036;-64
2022/10/12 08:32:55;;;;;;;8.25;3.45;;;;;;;19.36;42.38;102298.84;5060707;28;20033;-69
2022/10/12 08:35:20;;;;;;;7.55;3.75;;;;;;;19.36;42.38;102290.94;5059194;28;20115;-67
2022/10/12 08:37:45;;;;;;;8.10;3.70;;;;;;;19.33;42.58;102291.97;5059940;28;20039;-65
2022/10/12 08:40:18;;;;;;;9.93;3.43;;;;;;;19.48;42.49;102297.22;5059785;28;20051;-68
2022/10/12 08:42:55;;;;;;;9.82;4.30;;;;;;;19.56;42.46;102297.56;5060451;28;20261;-66
2022/10/12 08:45:38;;;;;;;8.38;3.70;;;;;;;19.57;42.16;102302.75;5060294;28;20028;-66
2022/10/12 08:48:26;;;;;;;6.88;3.63;;;;;;;19.50;42.39;102292.66;5060266;28;20029;-66
2022/10/12 08:50:59;;;;;;;6.47;3.50;;;;;;;19.62;42.32;102294.53;5060646;28;20040;-64
2022/10/12 08:53:31;;;;;;;11.60;4.33;;;;;;;19.71;42.21;102299.22;5059768;28;20028;-66
2022/10/12 08:55:57;;;;;;;8.82;4.10;;;;;;;19.79;41.97;102301.41;5060185;28;20131;-65
2022/10/12 08:58:35;;;;;;;7.40;3.60;;;;;;;19.79;42.06;102297.88;5060351;28;20154;-67
2022/10/12 09:01:14;;;;;;;8.77;3.63;;;;;;;19.82;42.04;102305.63;5060304;28;20550;-68
2022/10/12 09:04:03;;;;;;;6.88;3.42;;;;;;;19.82;42.21;102308.28;5060316;28;20028;-66
2022/10/12 09:06:46;;;;;;;6.15;3.22;;;;;;;19.82;41.86;102309.16;5059984;28;20037;-63
2022/10/12 09:09:36;;;;;;;9.38;3.50;;;;;;;19.70;42.29;102299.31;5059713;28;20539;-65
2022/10/12 09:12:32;;;;;;;6.95;3.47;;;;;;;19.75;42.25;102313.09;5059772;28;20033;-65
2022/10/12 09:15:02;;;;;;;10.57;3.65;;;;;;;19.77;42.24;102316.50;5059898;28;20028;-64
2022/10/12 09:18:38;;;;;;;7.97;3.30;;;;;;;19.77;42.25;102324.44;5059971;28;20095;-65
2022/10/12 09:21:06;;;;;;;;;;;;;;;19.77;42.34;102324.44;5017119;28;20060;-66
2022/10/12 09:23:37;;;;;;;6.20;3.22;;;;;;;19.80;42.19;102320.75;5040508;28;19908;-66
2022/10/12 09:26:13;;;;;;;7.03;3.42;;;;;;;19.80;42.29;102323.41;5056967;28;20044;-68
2022/10/12 09:28:45;;;;;;;7.28;3.60;;;;;;;19.74;42.29;102311.38;5063695;28;20145;-66
2022/10/12 09:31:35;;;;;;;6.25;3.45;;;;;;;19.77;42.54;102316.50;5063631;28;20436;-65
2022/10/12 09:34:05;;;;;;;8.77;4.00;;;;;;;19.71;42.27;102307.16;5063516;28;20467;-65
2022/10/12 09:36:34;;;;;;;7.03;3.58;;;;;;;19.68;42.52;102304.72;5063284;28;20040;-67
2022/10/12 09:39:03;;;;;;;6.97;3.70;;;;;;;19.71;42.47;102301.00;5063440;28;20027;-68
2022/10/12 09:41:43;;;;;;;6.72;4.05;;;;;;;19.80;42.63;102315.47;5063307;28;20453;-66
2022/10/12 09:44:21;;;;;;;6.05;3.38;;;;;;;19.81;42.41;102310.06;5063018;28;20035;-68
2022/10/12 09:46:54;;;;;;;9.02;3.63;;;;;;;19.82;42.48;102309.16;5062931;28;20472;-65
2022/10/12 09:49:19;;;;;;;10.18;3.70;;;;;;;19.80;42.66;102305.72;5063544;28;20043;-66
2022/10/12 09:51:45;;;;;;;9.25;3.60;;;;;;;19.84;42.57;102314.34;5063092;28;20360;-67
2022/10/12 09:54:18;;;;;;;6.93;3.42;;;;;;;19.84;42.90;102304.59;5062917;28;20086;-67
2022/10/12 09:56:49;;;;;;;7.13;3.80;;;;;;;19.86;43.06;102301.84;5063019;28;20040;-65
2022/10/12 09:59:26;;;;;;;7.15;3.25;;;;;;;19.84;42.83;102298.47;5062582;28;20561;-65
2022/10/12 10:02:14;;;;;;;6.20;3.63;;;;;;;19.74;42.67;102280.50;5063179;28;20143;-66
2022/10/12 10:04:42;;;;;;;6.68;3.30;;;;;;;19.73;42.86;102278.81;5062800;28;20058;-65
2022/10/12 10:07:34;;;;;;;7.47;3.10;;;;;;;19.84;42.82;102287.88;5062770;28;20388;-66
2022/10/12 10:10:12;;;;;;;5.47;3.15;;;;;;;19.81;42.93;102270.41;5062804;28;20067;-69
2022/10/12 10:12:47;;;;;;;6.75;3.00;;;;;;;19.90;42.96;102276.88;5062302;28;20392;-69
2022/10/12 10:15:40;;;;;;;7.68;3.33;;;;;;;19.90;42.79;102283.03;5062773;28;20056;-68
2022/10/12 10:18:34;;;;;;;10.57;3.47;;;;;;;19.91;43.04;102279.41;5060669;28;20136;-69
2022/10/12 10:21:01;;;;;;;;;;;;;;;19.89;42.92;102285.78;5062998;28;20063;-63
2022/10/12 10:23:30;;;;;;;6.93;2.80;;;;;;;19.88;42.89;102284.91;5062238;28;19908;-68
2022/10/12 10:25:55;;;;;;;10.82;3.40;;;;;;;19.89;43.09;102277.84;5062286;28;20079;-67
2022/10/12 10:28:24;;;;;;;6.03;3.10;;;;;;;19.84;43.17;102272.00;5062423;28;20056;-70
2022/10/12 10:31:05;;;;;;;8.05;3.22;;;;;;;19.90;42.97;102285.66;5062527;28;20446;-68
2022/10/12 10:33:39;;;;;;;6.15;2.97;;;;;;;19.88;43.02;102287.53;5059683;28;20032;-67
2022/10/12 10:36:19;;;;;;;9.10;2.90;;;;;;;19.91;42.99;102282.06;5061982;28;20036;-63
2022/10/12 10:38:53;;;;;;;10.07;3.17;;;;;;;19.92;43.20;102278.47;5062168;28;20036;-68
2022/10/12 10:41:19;;;;;;;8.43;3.22;;;;;;;19.90;43.05;102268.94;5062368;28;20040;-63
2022/10/12 10:43:48;;;;;;;5.63;2.78;;;;;;;19.98;42.96;102273.72;5061469;28;20479;-62
2022/10/12 10:46:15;;;;;;;7.03;2.70;;;;;;;19.88;42.91;102257.59;5062292;28;20064;-61
2022/10/12 10:48:52;;;;;;;8.43;2.92;;;;;;;19.85;42.82;102250.75;5062507;28;20043;-64
2022/10/12 10:51:18;;;;;;;5.80;2.58;;;;;;;19.84;42.99;102254.31;5062613;28;20109;-62
2022/10/12 10:53:49;;;;;;;7.25;2.53;;;;;;;19.91;42.85;102276.75;5062199;28;20036;-64
2022/10/12 10:56:24;;;;;;;7.82;2.70;;;;;;;19.90;42.92;102271.56;5062063;28;20036;-61
2022/10/12 10:58:55;;;;;;;6.78;2.30;;;;;;;19.87;43.06;102262.06;5062640;28;20034;-62
2022/10/12 11:01:37;;;;;;;6.38;2.63;;;;;;;19.86;42.86;102260.34;5062235;28;20029;-62
2022/10/12 11:04:08;;;;;;;5.75;2.50;;;;;;;19.78;42.97;102244.16;5061832;28;20021;-62
2022/10/12 11:06:40;;;;;;;7.45;2.70;;;;;;;19.66;43.01;102219.34;5062280;28;20636;-62
2022/10/12 11:09:20;;;;;;;6.68;2.78;;;;;;;19.80;42.99;102246.69;5062552;28;20029;-61
2022/10/12 11:11:56;;;;;;;5.30;2.67;;;;;;;19.75;42.91;102231.94;5062273;28;20074;-62
2022/10/12 11:14:29;;;;;;;6.07;2.60;;;;;;;19.80;42.86;102241.41;5061790;28;20031;-61
2022/10/12 11:16:58;;;;;;;5.85;2.78;;;;;;;19.72;42.98;102221.53;5062329;28;20106;-63
2022/10/12 11:19:44;;;;;;;7.93;2.72;;;;;;;19.72;42.79;102218.06;5062168;28;20365;-62
2022/10/12 11:22:15;;;;;;;5.85;2.38;;;;;;;19.77;42.90;102228.38;5061985;28;20028;-60
2022/10/12 11:24:48;;;;;;;5.75;2.30;;;;;;;19.58;43.01;102196.03;5061587;28;20043;-61
2022/10/12 11:27:20;;;;;;;5.05;2.17;;;;;;;19.73;42.95;102219.78;5061718;28;20032;-61
2022/10/12 11:29:45;;;;;;;5.35;2.25;;;;;;;19.67;43.04;102196.38;5061892;28;20036;-61
2022/10/12 11:32:24;;;;;;;7.07;2.17;;;;;;;19.72;43.22;102210.97;5061605;28;20086;-62
2022/10/12 11:35:02;;;;;;;6.68;2.50;;;;;;;19.69;42.51;102197.97;5061550;28;20114;-62
2022/10/12 11:37:40;;;;;;;5.05;2.20;;;;;;;19.69;42.64;102203.28;5061745;28;20042;-61
2022/10/12 11:40:15;;;;;;;6.35;2.60;;;;;;;19.62;42.94;102185.25;5061387;28;20069;-62
2022/10/12 11:42:41;;;;;;;5.68;2.33;;;;;;;19.69;42.77;102182.09;5061574;28;20032;-61
2022/10/12 11:45:19;;;;;;;4.40;1.95;;;;;;;19.62;42.92;102167.59;5060932;28;20035;-63
2022/10/12 11:47:48;;;;;;;5.88;2.42;;;;;;;19.70;42.76;102185.59;5061210;28;20033;-61
2022/10/12 11:50:29;;;;;;;7.25;2.10;;;;;;;19.62;43.02;102170.22;5061294;28;20590;-62
2022/10/12 11:52:56;;;;;;;5.32;2.00;;;;;;;19.62;43.04;102179.97;5061579;28;20098;-60